sensor_id;sensor_type;location;lat;lon;timestamp;P1;durP1;ratioP1;P2;durP2;ratioP2
27357;SDS011;14831;50.474;7.616;2023-03-05T00:00:35;1.4;;;1.3;;
27357;SDS011;14831;50.474;7.616;2023-03-05T00:05:35;1.4;;;1.3;;
27357;SDS011;14831;50.474;7.616;2023-03-05T00:10:35;1.3;;;1.2;;
27357;SDS011;14831;50.474;7.616;2023-03-05T00:15:39;1.3;;;1.2;;
27357;SDS011;14831;50.474;7.616;2023-03-05T00:20:35;1.3;;;1.2;;
27357;SDS011;14831;50.474;7.616;2023-03-05T00:25:35;1.3;;;1.2;;
27357;SDS011;14831;50.474;7.616;2023-03-05T00:30:35;1.3;;;1.2;;
27357;SDS011;14831;50.474;7.616;2023-03-05T00:35:38;1.3;;;1.2;;
27357;SDS011;14831;50.474;7.616;2023-03-05T00:40:35;1.3;;;1.2;;
27357;SDS011;14831;50.474;7.616;2023-03-05T00:45:35;1.3;;;1.2;;
27357;SDS011;14831;50.474;7.616;2023-03-05T00:50:35;1.3;;;1.2;;
27357;SDS011;14831;50.474;7.616;2023-03-05T00:55:35;1.3;;;1.2;;
27357;SDS011;14831;50.474;7.616;2023-03-05T01:00:35;1.3;;;1.2;;
27357;SDS011;14831;50.474;7.616;2023-03-05T01:05:35;1.3;;;1.2;;
27357;SDS011;14831;50.474;7.616;2023-03-05T01:10:35;1.4;;;1.3;;
27357;SDS011;14831;50.474;7.616;2023-03-05T01:15:35;1.4;;;1.3;;
27357;SDS011;14831;50.474;7.616;2023-03-05T01:20:35;1.4;;;1.3;;
27357;SDS011;14831;50.474;7.616;2023-03-05T01:25:35;1.4;;;1.3;;
27357;SDS011;14831;50.474;7.616;2023-03-05T01:30:35;1.4;;;1.3;;
27357;SDS011;14831;50.474;7.616;2023-03-05T01:35:35;1.4;;;1.3;;
27357;SDS011;14831;50.474;7.616;2023-03-05T01:40:35;2.2;;;1.5;;
27357;SDS011;14831;50.474;7.616;2023-03-05T01:45:35;2.2;;;1.5;;
27357;SDS011;14831;50.474;7.616;2023-03-05T01:50:35;2.2;;;1.5;;
27357;SDS011;14831;50.474;7.616;2023-03-05T01:55:35;2.2;;;1.5;;
27357;SDS011;14831;50.474;7.616;2023-03-05T02:00:40;2.2;;;1.5;;
27357;SDS011;14831;50.474;7.616;2023-03-05T02:05:37;2.2;;;1.5;;
27357;SDS011;14831;50.474;7.616;2023-03-05T02:10:37;1.9;;;1.7;;
27357;SDS011;14831;50.474;7.616;2023-03-05T02:15:37;1.9;;;1.7;;
27357;SDS011;14831;50.474;7.616;2023-03-05T02:20:46;1.9;;;1.7;;
27357;SDS011;14831;50.474;7.616;2023-03-05T02:25:35;1.9;;;1.7;;
27357;SDS011;14831;50.474;7.616;2023-03-05T02:30:35;1.9;;;1.7;;
27357;SDS011;14831;50.474;7.616;2023-03-05T02:35:35;1.9;;;1.7;;
27357;SDS011;14831;50.474;7.616;2023-03-05T02:40:35;1.7;;;1.6;;
27357;SDS011;14831;50.474;7.616;2023-03-05T02:45:35;1.7;;;1.6;;
27357;SDS011;14831;50.474;7.616;2023-03-05T02:50:35;1.7;;;1.6;;
27357;SDS011;14831;50.474;7.616;2023-03-05T02:55:35;1.7;;;1.6;;
27357;SDS011;14831;50.474;7.616;2023-03-05T03:00:35;1.7;;;1.6;;
27357;SDS011;14831;50.474;7.616;2023-03-05T03:05:35;1.7;;;1.6;;
27357;SDS011;14831;50.474;7.616;2023-03-05T03:10:35;1.3;;;1.2;;
27357;SDS011;14831;50.474;7.616;2023-03-05T03:15:35;1.3;;;1.2;;
27357;SDS011;14831;50.474;7.616;2023-03-05T03:20:36;1.3;;;1.2;;
27357;SDS011;14831;50.474;7.616;2023-03-05T03:25:35;1.3;;;1.2;;
27357;SDS011;14831;50.474;7.616;2023-03-05T03:30:35;1.3;;;1.2;;
27357;SDS011;14831;50.474;7.616;2023-03-05T03:35:35;1.3;;;1.2;;
27357;SDS011;14831;50.474;7.616;2023-03-05T03:40:35;1.4;;;1.3;;
27357;SDS011;14831;50.474;7.616;2023-03-05T03:45:39;1.4;;;1.3;;
27357;SDS011;14831;50.474;7.616;2023-03-05T03:50:37;1.4;;;1.3;;
27357;SDS011;14831;50.474;7.616;2023-03-05T03:55:35;1.4;;;1.3;;
27357;SDS011;14831;50.474;7.616;2023-03-05T04:00:35;1.4;;;1.3;;
27357;SDS011;14831;50.474;7.616;2023-03-05T04:05:35;1.4;;;1.3;;
27357;SDS011;14831;50.474;7.616;2023-03-05T04:10:35;1.5;;;1.4;;
27357;SDS011;14831;50.474;7.616;2023-03-05T04:15:35;1.5;;;1.4;;
27357;SDS011;14831;50.474;7.616;2023-03-05T04:20:35;1.5;;;1.4;;
27357;SDS011;14831;50.474;7.616;2023-03-05T04:25:35;1.5;;;1.4;;
27357;SDS011;14831;50.474;7.616;2023-03-05T04:30:35;1.5;;;1.4;;
27357;SDS011;14831;50.474;7.616;2023-03-05T04:35:35;1.5;;;1.4;;
27357;SDS011;14831;50.474;7.616;2023-03-05T04:40:35;1.7;;;1.6;;
27357;SDS011;14831;50.474;7.616;2023-03-05T04:45:38;1.7;;;1.6;;
27357;SDS011;14831;50.474;7.616;2023-03-05T04:50:35;1.7;;;1.6;;
27357;SDS011;14831;50.474;7.616;2023-03-05T04:55:35;1.7;;;1.6;;
27357;SDS011;14831;50.474;7.616;2023-03-05T05:00:35;1.7;;;1.6;;
27357;SDS011;14831;50.474;7.616;2023-03-05T05:05:35;1.7;;;1.6;;
27357;SDS011;14831;50.474;7.616;2023-03-05T05:10:35;1.7;;;1.6;;
27357;SDS011;14831;50.474;7.616;2023-03-05T05:15:35;1.7;;;1.6;;
27357;SDS011;14831;50.474;7.616;2023-03-05T05:20:35;1.7;;;1.6;;
27357;SDS011;14831;50.474;7.616;2023-03-05T05:25:35;1.7;;;1.6;;
27357;SDS011;14831;50.474;7.616;2023-03-05T05:30:35;1.7;;;1.6;;
27357;SDS011;14831;50.474;7.616;2023-03-05T05:35:38;1.7;;;1.6;;
27357;SDS011;14831;50.474;7.616;2023-03-05T05:40:35;2.0;;;1.6;;
27357;SDS011;14831;50.474;7.616;2023-03-05T05:45:36;2.0;;;1.6;;
27357;SDS011;14831;50.474;7.616;2023-03-05T05:50:36;2.0;;;1.6;;
27357;SDS011;14831;50.474;7.616;2023-03-05T05:55:39;2.0;;;1.6;;
27357;SDS011;14831;50.474;7.616;2023-03-05T06:00:35;2.0;;;1.6;;
27357;SDS011;14831;50.474;7.616;2023-03-05T06:05:35;2.0;;;1.6;;
27357;SDS011;14831;50.474;7.616;2023-03-05T06:10:35;1.4;;;1.3;;
27357;SDS011;14831;50.474;7.616;2023-03-05T06:15:35;1.4;;;1.3;;
27357;SDS011;14831;50.474;7.616;2023-03-05T06:20:35;1.4;;;1.3;;
27357;SDS011;14831;50.474;7.616;2023-03-05T06:25:36;1.4;;;1.3;;
27357;SDS011;14831;50.474;7.616;2023-03-05T06:30:36;1.4;;;1.3;;
27357;SDS011;14831;50.474;7.616;2023-03-05T06:35:36;1.4;;;1.3;;
27357;SDS011;14831;50.474;7.616;2023-03-05T06:40:38;1.4;;;1.3;;
27357;SDS011;14831;50.474;7.616;2023-03-05T06:45:35;1.4;;;1.3;;
27357;SDS011;14831;50.474;7.616;2023-03-05T06:50:35;1.4;;;1.3;;
27357;SDS011;14831;50.474;7.616;2023-03-05T06:55:35;1.4;;;1.3;;
27357;SDS011;14831;50.474;7.616;2023-03-05T07:00:35;1.4;;;1.3;;
27357;SDS011;14831;50.474;7.616;2023-03-05T07:05:36;1.4;;;1.3;;
27357;SDS011;14831;50.474;7.616;2023-03-05T07:10:37;1.0;;;1.0;;
27357;SDS011;14831;50.474;7.616;2023-03-05T07:15:38;1.0;;;1.0;;
27357;SDS011;14831;50.474;7.616;2023-03-05T07:20:36;1.0;;;1.0;;
27357;SDS011;14831;50.474;7.616;2023-03-05T07:25:36;1.0;;;1.0;;
27357;SDS011;14831;50.474;7.616;2023-03-05T07:30:35;1.0;;;1.0;;
27357;SDS011;14831;50.474;7.616;2023-03-05T07:35:39;1.0;;;1.0;;
27357;SDS011;14831;50.474;7.616;2023-03-05T07:40:35;1.1;;;1.1;;
27357;SDS011;14831;50.474;7.616;2023-03-05T07:45:38;1.1;;;1.1;;
27357;SDS011;14831;50.474;7.616;2023-03-05T07:50:35;1.1;;;1.1;;
27357;SDS011;14831;50.474;7.616;2023-03-05T07:55:41;1.1;;;1.1;;
27357;SDS011;14831;50.474;7.616;2023-03-05T08:00:35;1.1;;;1.1;;
27357;SDS011;14831;50.474;7.616;2023-03-05T08:05:37;1.1;;;1.1;;
27357;SDS011;14831;50.474;7.616;2023-03-05T08:10:36;0.9;;;0.9;;
27357;SDS011;14831;50.474;7.616;2023-03-05T08:15:37;0.9;;;0.9;;
27357;SDS011;14831;50.474;7.616;2023-03-05T08:20:35;0.9;;;0.9;;
27357;SDS011;14831;50.474;7.616;2023-03-05T08:25:35;0.9;;;0.9;;
27357;SDS011;14831;50.474;7.616;2023-03-05T08:30:35;0.9;;;0.9;;
27357;SDS011;14831;50.474;7.616;2023-03-05T08:35:35;0.9;;;0.9;;
27357;SDS011;14831;50.474;7.616;2023-03-05T08:40:35;1.4;;;1.0;;
27357;SDS011;14831;50.474;7.616;2023-03-05T08:45:37;1.4;;;1.0;;
27357;SDS011;14831;50.474;7.616;2023-03-05T08:50:36;1.4;;;1.0;;
27357;SDS011;14831;50.474;7.616;2023-03-05T08:55:35;1.4;;;1.0;;
27357;SDS011;14831;50.474;7.616;2023-03-05T09:00:35;1.4;;;1.0;;
27357;SDS011;14831;50.474;7.616;2023-03-05T09:05:35;1.4;;;1.0;;
27357;SDS011;14831;50.474;7.616;2023-03-05T09:10:35;0.8;;;0.8;;
27357;SDS011;14831;50.474;7.616;2023-03-05T09:15:35;0.8;;;0.8;;
27357;SDS011;14831;50.474;7.616;2023-03-05T09:20:36;0.8;;;0.8;;
27357;SDS011;14831;50.474;7.616;2023-03-05T09:25:35;0.8;;;0.8;;
27357;SDS011;14831;50.474;7.616;2023-03-05T09:30:36;0.8;;;0.8;;
27357;SDS011;14831;50.474;7.616;2023-03-05T09:35:35;0.8;;;0.8;;
27357;SDS011;14831;50.474;7.616;2023-03-05T09:40:43;1.2;;;1.0;;
27357;SDS011;14831;50.474;7.616;2023-03-05T09:45:39;1.2;;;1.0;;
27357;SDS011;14831;50.474;7.616;2023-03-05T09:50:38;1.2;;;1.0;;
27357;SDS011;14831;50.474;7.616;2023-03-05T09:55:36;1.2;;;1.0;;
27357;SDS011;14831;50.474;7.616;2023-03-05T10:00:40;1.2;;;1.0;;
27357;SDS011;14831;50.474;7.616;2023-03-05T10:05:47;1.2;;;1.0;;
27357;SDS011;14831;50.474;7.616;2023-03-05T10:10:39;1.0;;;0.9;;
27357;SDS011;14831;50.474;7.616;2023-03-05T10:15:39;1.0;;;0.9;;
27357;SDS011;14831;50.474;7.616;2023-03-05T10:21:11;1.0;;;0.9;;
27357;SDS011;14831;50.474;7.616;2023-03-05T10:25:50;1.0;;;0.9;;
27357;SDS011;14831;50.474;7.616;2023-03-05T10:30:49;1.0;;;0.9;;
27357;SDS011;14831;50.474;7.616;2023-03-05T10:35:49;1.0;;;0.9;;
27357;SDS011;14831;50.474;7.616;2023-03-05T10:40:39;1.6;;;1.1;;
27357;SDS011;14831;50.474;7.616;2023-03-05T10:45:39;1.6;;;1.1;;
27357;SDS011;14831;50.474;7.616;2023-03-05T10:50:38;1.6;;;1.1;;
27357;SDS011;14831;50.474;7.616;2023-03-05T10:55:35;1.6;;;1.1;;
27357;SDS011;14831;50.474;7.616;2023-03-05T11:00:35;1.6;;;1.1;;
27357;SDS011;14831;50.474;7.616;2023-03-05T11:05:41;1.6;;;1.1;;
27357;SDS011;14831;50.474;7.616;2023-03-05T11:10:35;1.3;;;1.1;;
27357;SDS011;14831;50.474;7.616;2023-03-05T11:15:35;1.3;;;1.1;;
27357;SDS011;14831;50.474;7.616;2023-03-05T11:20:36;1.3;;;1.1;;
27357;SDS011;14831;50.474;7.616;2023-03-05T11:25:50;1.3;;;1.1;;
27357;SDS011;14831;50.474;7.616;2023-03-05T11:30:35;1.3;;;1.1;;
27357;SDS011;14831;50.474;7.616;2023-03-05T11:35:37;1.3;;;1.1;;
27357;SDS011;14831;50.474;7.616;2023-03-05T11:40:35;1.3;;;1.2;;
27357;SDS011;14831;50.474;7.616;2023-03-05T11:45:35;1.3;;;1.2;;
27357;SDS011;14831;50.474;7.616;2023-03-05T11:50:37;1.3;;;1.2;;
27357;SDS011;14831;50.474;7.616;2023-03-05T11:55:39;1.3;;;1.2;;
27357;SDS011;14831;50.474;7.616;2023-03-05T12:00:42;1.3;;;1.2;;
27357;SDS011;14831;50.474;7.616;2023-03-05T12:05:36;1.3;;;1.2;;
27357;SDS011;14831;50.474;7.616;2023-03-05T12:10:35;1.4;;;1.0;;
27357;SDS011;14831;50.474;7.616;2023-03-05T12:15:43;1.4;;;1.0;;
27357;SDS011;14831;50.474;7.616;2023-03-05T12:20:41;1.4;;;1.0;;
27357;SDS011;14831;50.474;7.616;2023-03-05T12:25:45;1.4;;;1.0;;
27357;SDS011;14831;50.474;7.616;2023-03-05T12:31:26;1.4;;;1.0;;
27357;SDS011;14831;50.474;7.616;2023-03-05T12:35:36;1.4;;;1.0;;
27357;SDS011;14831;50.474;7.616;2023-03-05T12:40:35;1.4;;;1.2;;
27357;SDS011;14831;50.474;7.616;2023-03-05T12:45:37;1.4;;;1.2;;
27357;SDS011;14831;50.474;7.616;2023-03-05T12:50:57;1.4;;;1.2;;
27357;SDS011;14831;50.474;7.616;2023-03-05T12:55:37;1.4;;;1.2;;
27357;SDS011;14831;50.474;7.616;2023-03-05T13:00:39;1.4;;;1.2;;
27357;SDS011;14831;50.474;7.616;2023-03-05T13:05:37;1.4;;;1.2;;
27357;SDS011;14831;50.474;7.616;2023-03-05T13:10:35;2.4;;;1.4;;
27357;SDS011;14831;50.474;7.616;2023-03-05T13:15:35;2.4;;;1.4;;
27357;SDS011;14831;50.474;7.616;2023-03-05T13:20:36;2.4;;;1.4;;
27357;SDS011;14831;50.474;7.616;2023-03-05T13:25:35;2.4;;;1.4;;
27357;SDS011;14831;50.474;7.616;2023-03-05T13:30:35;2.4;;;1.4;;
27357;SDS011;14831;50.474;7.616;2023-03-05T13:35:43;2.4;;;1.4;;
27357;SDS011;14831;50.474;7.616;2023-03-05T13:40:35;2.1;;;1.6;;
27357;SDS011;14831;50.474;7.616;2023-03-05T13:45:35;2.1;;;1.6;;
27357;SDS011;14831;50.474;7.616;2023-03-05T13:50:37;2.1;;;1.6;;
27357;SDS011;14831;50.474;7.616;2023-03-05T13:55:37;2.1;;;1.6;;
27357;SDS011;14831;50.474;7.616;2023-03-05T14:00:37;2.1;;;1.6;;
27357;SDS011;14831;50.474;7.616;2023-03-05T14:05:36;2.1;;;1.6;;
27357;SDS011;14831;50.474;7.616;2023-03-05T14:10:37;4.4;;;2.0;;
27357;SDS011;14831;50.474;7.616;2023-03-05T14:15:35;4.4;;;2.0;;
27357;SDS011;14831;50.474;7.616;2023-03-05T14:20:35;4.4;;;2.0;;
27357;SDS011;14831;50.474;7.616;2023-03-05T14:25:37;4.4;;;2.0;;
27357;SDS011;14831;50.474;7.616;2023-03-05T14:30:35;4.4;;;2.0;;
27357;SDS011;14831;50.474;7.616;2023-03-05T14:35:35;4.4;;;2.0;;
27357;SDS011;14831;50.474;7.616;2023-03-05T14:40:35;3.9;;;2.4;;
27357;SDS011;14831;50.474;7.616;2023-03-05T14:45:37;3.9;;;2.4;;
27357;SDS011;14831;50.474;7.616;2023-03-05T14:50:42;3.9;;;2.4;;
27357;SDS011;14831;50.474;7.616;2023-03-05T14:55:35;3.9;;;2.4;;
27357;SDS011;14831;50.474;7.616;2023-03-05T15:00:35;3.9;;;2.4;;
27357;SDS011;14831;50.474;7.616;2023-03-05T15:05:35;3.9;;;2.4;;
27357;SDS011;14831;50.474;7.616;2023-03-05T15:10:35;5.0;;;2.9;;
27357;SDS011;14831;50.474;7.616;2023-03-05T15:15:35;5.0;;;2.9;;
27357;SDS011;14831;50.474;7.616;2023-03-05T15:20:35;5.0;;;2.9;;
27357;SDS011;14831;50.474;7.616;2023-03-05T15:25:35;5.0;;;2.9;;
27357;SDS011;14831;50.474;7.616;2023-03-05T15:30:38;5.0;;;2.9;;
27357;SDS011;14831;50.474;7.616;2023-03-05T15:35:35;5.0;;;2.9;;
27357;SDS011;14831;50.474;7.616;2023-03-05T15:40:35;5.1;;;2.7;;
27357;SDS011;14831;50.474;7.616;2023-03-05T15:45:35;5.1;;;2.7;;
27357;SDS011;14831;50.474;7.616;2023-03-05T15:50:35;5.1;;;2.7;;
27357;SDS011;14831;50.474;7.616;2023-03-05T15:55:37;5.1;;;2.7;;
27357;SDS011;14831;50.474;7.616;2023-03-05T16:00:36;5.1;;;2.7;;
27357;SDS011;14831;50.474;7.616;2023-03-05T16:05:36;5.1;;;2.7;;
27357;SDS011;14831;50.474;7.616;2023-03-05T16:10:35;2.6;;;2.2;;
27357;SDS011;14831;50.474;7.616;2023-03-05T16:15:37;2.6;;;2.2;;
27357;SDS011;14831;50.474;7.616;2023-03-05T16:20:35;2.6;;;2.2;;
27357;SDS011;14831;50.474;7.616;2023-03-05T16:25:36;2.6;;;2.2;;
27357;SDS011;14831;50.474;7.616;2023-03-05T16:30:35;2.6;;;2.2;;
27357;SDS011;14831;50.474;7.616;2023-03-05T16:35:35;2.6;;;2.2;;
27357;SDS011;14831;50.474;7.616;2023-03-05T16:40:36;2.2;;;2.0;;
27357;SDS011;14831;50.474;7.616;2023-03-05T16:45:35;2.2;;;2.0;;
27357;SDS011;14831;50.474;7.616;2023-03-05T16:50:35;2.2;;;2.0;;
27357;SDS011;14831;50.474;7.616;2023-03-05T16:55:35;2.2;;;2.0;;
27357;SDS011;14831;50.474;7.616;2023-03-05T17:00:35;2.2;;;2.0;;
27357;SDS011;14831;50.474;7.616;2023-03-05T17:05:36;2.2;;;2.0;;
27357;SDS011;14831;50.474;7.616;2023-03-05T17:10:35;2.9;;;2.1;;
27357;SDS011;14831;50.474;7.616;2023-03-05T17:15:35;2.9;;;2.1;;
27357;SDS011;14831;50.474;7.616;2023-03-05T17:20:35;2.9;;;2.1;;
27357;SDS011;14831;50.474;7.616;2023-03-05T17:25:35;2.9;;;2.1;;
27357;SDS011;14831;50.474;7.616;2023-03-05T17:30:35;2.9;;;2.1;;
27357;SDS011;14831;50.474;7.616;2023-03-05T17:35:35;2.9;;;2.1;;
27357;SDS011;14831;50.474;7.616;2023-03-05T17:40:35;1.8;;;1.7;;
27357;SDS011;14831;50.474;7.616;2023-03-05T17:45:35;1.8;;;1.7;;
27357;SDS011;14831;50.474;7.616;2023-03-05T17:50:35;1.8;;;1.7;;
27357;SDS011;14831;50.474;7.616;2023-03-05T17:55:35;1.8;;;1.7;;
27357;SDS011;14831;50.474;7.616;2023-03-05T18:00:35;1.8;;;1.7;;
27357;SDS011;14831;50.474;7.616;2023-03-05T18:05:35;1.8;;;1.7;;
27357;SDS011;14831;50.474;7.616;2023-03-05T18:10:35;1.8;;;1.7;;
27357;SDS011;14831;50.474;7.616;2023-03-05T18:15:35;1.8;;;1.7;;
27357;SDS011;14831;50.474;7.616;2023-03-05T18:20:35;1.8;;;1.7;;
27357;SDS011;14831;50.474;7.616;2023-03-05T18:25:35;1.8;;;1.7;;
27357;SDS011;14831;50.474;7.616;2023-03-05T18:30:36;1.8;;;1.7;;
27357;SDS011;14831;50.474;7.616;2023-03-05T18:35:35;1.8;;;1.7;;
27357;SDS011;14831;50.474;7.616;2023-03-05T18:40:35;2.4;;;2.1;;
27357;SDS011;14831;50.474;7.616;2023-03-05T18:45:35;2.4;;;2.1;;
27357;SDS011;14831;50.474;7.616;2023-03-05T18:50:35;2.4;;;2.1;;
27357;SDS011;14831;50.474;7.616;2023-03-05T18:55:35;2.4;;;2.1;;
27357;SDS011;14831;50.474;7.616;2023-03-05T19:00:35;2.4;;;2.1;;
27357;SDS011;14831;50.474;7.616;2023-03-05T19:05:36;2.4;;;2.1;;
27357;SDS011;14831;50.474;7.616;2023-03-05T19:10:35;2.3;;;2.1;;
27357;SDS011;14831;50.474;7.616;2023-03-05T19:15:37;2.3;;;2.1;;
27357;SDS011;14831;50.474;7.616;2023-03-05T19:20:35;2.3;;;2.1;;
27357;SDS011;14831;50.474;7.616;2023-03-05T19:25:35;2.3;;;2.1;;
27357;SDS011;14831;50.474;7.616;2023-03-05T19:30:36;2.3;;;2.1;;
27357;SDS011;14831;50.474;7.616;2023-03-05T19:35:35;2.3;;;2.1;;
27357;SDS011;14831;50.474;7.616;2023-03-05T19:40:35;2.2;;;2.0;;
27357;SDS011;14831;50.474;7.616;2023-03-05T19:45:35;2.2;;;2.0;;
27357;SDS011;14831;50.474;7.616;2023-03-05T19:50:35;2.2;;;2.0;;
27357;SDS011;14831;50.474;7.616;2023-03-05T19:55:38;2.2;;;2.0;;
27357;SDS011;14831;50.474;7.616;2023-03-05T20:00:35;2.2;;;2.0;;
27357;SDS011;14831;50.474;7.616;2023-03-05T20:05:35;2.2;;;2.0;;
27357;SDS011;14831;50.474;7.616;2023-03-05T20:10:35;2.6;;;2.2;;
27357;SDS011;14831;50.474;7.616;2023-03-05T20:15:35;2.6;;;2.2;;
27357;SDS011;14831;50.474;7.616;2023-03-05T20:20:35;2.6;;;2.2;;
27357;SDS011;14831;50.474;7.616;2023-03-05T20:25:37;2.6;;;2.2;;
27357;SDS011;14831;50.474;7.616;2023-03-05T20:30:35;2.6;;;2.2;;
27357;SDS011;14831;50.474;7.616;2023-03-05T20:35:35;2.6;;;2.2;;
27357;SDS011;14831;50.474;7.616;2023-03-05T20:40:35;2.0;;;1.9;;
27357;SDS011;14831;50.474;7.616;2023-03-05T20:45:35;2.0;;;1.9;;
27357;SDS011;14831;50.474;7.616;2023-03-05T20:50:35;2.0;;;1.9;;
27357;SDS011;14831;50.474;7.616;2023-03-05T20:55:36;2.0;;;1.9;;
27357;SDS011;14831;50.474;7.616;2023-03-05T21:00:36;2.0;;;1.9;;
27357;SDS011;14831;50.474;7.616;2023-03-05T21:05:36;2.0;;;1.9;;
27357;SDS011;14831;50.474;7.616;2023-03-05T21:10:36;2.0;;;1.9;;
27357;SDS011;14831;50.474;7.616;2023-03-05T21:15:38;2.0;;;1.9;;
27357;SDS011;14831;50.474;7.616;2023-03-05T21:20:35;2.0;;;1.9;;
27357;SDS011;14831;50.474;7.616;2023-03-05T21:25:35;2.0;;;1.9;;
27357;SDS011;14831;50.474;7.616;2023-03-05T21:30:38;2.0;;;1.9;;
27357;SDS011;14831;50.474;7.616;2023-03-05T21:35:36;2.0;;;1.9;;
27357;SDS011;14831;50.474;7.616;2023-03-05T21:40:37;1.8;;;1.7;;
27357;SDS011;14831;50.474;7.616;2023-03-05T21:45:35;1.8;;;1.7;;
27357;SDS011;14831;50.474;7.616;2023-03-05T21:50:37;1.8;;;1.7;;
27357;SDS011;14831;50.474;7.616;2023-03-05T21:55:36;1.8;;;1.7;;
27357;SDS011;14831;50.474;7.616;2023-03-05T22:00:35;1.8;;;1.7;;
27357;SDS011;14831;50.474;7.616;2023-03-05T22:05:35;1.8;;;1.7;;
27357;SDS011;14831;50.474;7.616;2023-03-05T22:10:35;2.0;;;1.8;;
27357;SDS011;14831;50.474;7.616;2023-03-05T22:15:40;2.0;;;1.8;;
27357;SDS011;14831;50.474;7.616;2023-03-05T22:20:35;2.0;;;1.8;;
27357;SDS011;14831;50.474;7.616;2023-03-05T22:25:36;2.0;;;1.8;;
27357;SDS011;14831;50.474;7.616;2023-03-05T22:30:35;2.0;;;1.8;;
27357;SDS011;14831;50.474;7.616;2023-03-05T22:35:37;2.0;;;1.8;;
27357;SDS011;14831;50.474;7.616;2023-03-05T22:40:39;1.8;;;1.7;;
27357;SDS011;14831;50.474;7.616;2023-03-05T22:45:35;1.8;;;1.7;;
27357;SDS011;14831;50.474;7.616;2023-03-05T22:50:35;1.8;;;1.7;;
27357;SDS011;14831;50.474;7.616;2023-03-05T22:55:37;1.8;;;1.7;;
27357;SDS011;14831;50.474;7.616;2023-03-05T23:00:35;1.8;;;1.7;;
27357;SDS011;14831;50.474;7.616;2023-03-05T23:05:37;1.8;;;1.7;;
27357;SDS011;14831;50.474;7.616;2023-03-05T23:10:35;2.0;;;1.8;;
27357;SDS011;14831;50.474;7.616;2023-03-05T23:15:37;2.0;;;1.8;;
27357;SDS011;14831;50.474;7.616;2023-03-05T23:20:36;2.0;;;1.8;;
27357;SDS011;14831;50.474;7.616;2023-03-05T23:25:35;2.0;;;1.8;;
27357;SDS011;14831;50.474;7.616;2023-03-05T23:30:36;2.0;;;1.8;;
27357;SDS011;14831;50.474;7.616;2023-03-05T23:35:38;2.0;;;1.8;;
27357;SDS011;14831;50.474;7.616;2023-03-05T23:40:38;1.5;;;1.4;;
27357;SDS011;14831;50.474;7.616;2023-03-05T23:45:35;1.5;;;1.4;;
27357;SDS011;14831;50.474;7.616;2023-03-05T23:50:38;1.5;;;1.4;;
27357;SDS011;14831;50.474;7.616;2023-03-05T23:55:38;1.5;;;1.4;;
